Badger Spring Valley, Nevada Weather observations

Data are for 10 minute period ending at time listed.
 Day   Time   Solar   Ave.   Ave.  Ave.  Vector  Max.   Baro.   Total    
  of    of     Rad.   Air    Rel.  Wind   Wind   Wind  Press.  Precip.   
Year   Day            Temp.  Hum.  Speed  Dir.   Gust                    
2015   (PST)  Kw/m2    F      %     mph   deg.    mph    mb.     in.     
-------------------------------------------------------------------------
  28    1:20   0.00   39.3    91    1.4   296     4.4   835.1    0.00 
  28    1:30   0.00   38.0    92    2.4   217     5.0   835.1    0.00 
  28    1:40   0.00   36.4    94    4.5   294     6.5   835.1    0.00 
  28    1:50   0.00   37.8    92    6.1   277     7.0   835.1    0.00 
  28    2:00   0.00   37.9    90    6.6   277     7.6   835.1    0.00 
  28    2:10   0.00   37.9    90    7.1   275     8.4   835.1    0.00 
  28    2:20   0.00   37.9    90    4.7   276     7.0   835.2    0.00 
  28    2:30   0.00   36.7    90    2.9   262     6.7   835.4    0.00 
  28    2:40   0.00   37.2    90    6.7   276     8.2   835.5    0.00 
  28    2:50   0.00   36.9    91    6.2   274     7.6   835.5    0.00 
  28    3:00   0.00   37.5    89    6.0   277     7.4   835.5    0.00 
  28    3:10   0.00   36.4    91    6.6   276     8.0   835.6    0.00 
  28    3:20   0.00   36.1    91    4.8   275     7.7   835.6    0.00 
  28    3:30   0.00   35.4    92    6.9   292     9.6   835.7    0.00 
  28    3:40   0.00   35.8    92    6.7   282     9.1   835.7    0.00 
  28    3:50   0.00   36.6    92    4.8   275     6.9   835.8    0.00 
  28    4:00   0.00   36.7    90    3.7   286     5.8   835.8    0.00 
  28    4:10   0.00   34.9    91    2.2   280     4.3   835.8    0.00 
  28    4:20   0.00   35.5    89    5.6   287     8.3   835.7    0.00 
  28    4:30   0.00   34.1    92    7.3   279     9.5   835.7    0.00 
  28    4:40   0.00   34.8    92    6.6   290     9.0   835.7    0.00 
  28    4:50   0.00   34.4    92    5.5   303     6.9   835.6    0.00 
  28    5:00   0.00   34.3    93    6.5   297     8.3   835.7    0.00 
  28    5:10   0.00   34.3    92    6.1   320     8.0   835.7    0.00 
  28    5:20   0.00   35.9    94    9.4   350    12.3   835.7    0.00 
  28    5:30   0.00   37.4    91    8.6   335    11.3   835.8    0.00 
  28    5:40   0.00   37.4    89    5.5   302     8.3   836.0    0.00 
  28    5:50   0.00   36.1    88    3.8   324     6.0   836.1    0.00 
  28    6:00   0.00   35.1    89    5.6   310     7.4   836.1    0.00 
  28    6:10   0.00   34.4    92    4.1   327     6.1   836.1    0.00 
  28    6:20   0.00   34.6    92    4.0   320     5.2   836.1    0.00 
  28    6:30   0.00   35.1    93    5.1   321     6.9   836.1    0.00 
  28    6:40   0.00   35.4    91    4.3   308     7.2   836.2    0.00 
  28    6:50   0.00   34.7    92    4.0   306     6.4   836.3    0.00 
  28    7:00   0.01   35.9    89    8.2   284    10.2   836.4    0.00 
  28    7:10   0.02   36.1    89    8.9   294    10.4   836.4    0.00 
  28    7:20   0.03   35.9    90    6.5   300     8.0   836.4    0.00 
  28    7:30   0.05   37.1    88    5.4   301     7.5   836.4    0.00 
  28    7:40   0.06   37.7    87    3.4   312     4.7   836.5    0.00 
  28    7:50   0.07   37.5    89    6.8   347    10.7   836.5    0.00 
  28    8:00   0.09   38.2    90   10.2   352    13.2   836.4    0.00 
  28    8:10   0.11   39.1    88    9.7   347    12.4   836.5    0.00 
  28    8:20   0.15   39.8    86    9.2   345    11.2   836.4    0.00 
  28    8:30   0.20   40.1    87    9.8   354    13.6   836.4    0.00 
  28    8:40   0.23   39.9    88   13.1   358    16.4   836.4    0.00 
  28    8:50   0.28   39.9    90   12.5   357    16.7   836.4    0.00 
  28    9:00   0.35   40.9    87   12.7   360    16.3   836.3    0.00 
  28    9:10   0.37   41.7    86   12.1   359    15.0   836.2    0.00 
  28    9:20   0.40   42.8    82   11.6     0    16.4   836.1    0.00 
  28    9:30   0.41   44.1    79   10.8   357    14.8   836.2    0.00 
  28    9:40   0.45   44.9    75   10.3     3    15.2   836.3    0.00 
  28    9:50   0.46   45.1    76   11.0   358    16.1   836.4    0.00 
  28   10:00   0.43   44.9    74   11.7   354    15.9   836.3    0.00 
  28   10:10   0.45   45.0    73   12.1     1    15.6   836.3    0.00 
  28   10:20   0.52   45.4    71   12.3     1    16.2   836.3    0.00 
  28   10:30   0.56   45.9    68   11.7   358    16.6   836.2    0.00 
  28   10:40   0.55   46.3    66   11.3     1    17.6   836.2    0.00 
  28   10:50   0.62   46.5    66   10.3     3    15.9   836.2    0.00 
  28   11:00   0.64   47.0    66    9.7    21    15.6   836.1    0.00 
  28   11:10   0.68   46.8    67    8.8    26    17.4   835.9    0.00 
  28   11:20   0.70   47.4    65    8.2     9    14.9   835.8    0.00 
  28   11:30   0.70   48.1    66    8.4     4    14.1   835.8    0.00 
  28   11:40   0.67   48.2    67    9.5     2    15.9   835.8    0.00 
  28   11:50   0.69   47.9    67   11.5   350    16.8   835.7    0.00 
  28   12:00   0.67   48.0    63   11.2   355    16.8   835.6    0.00 
  28   12:10   0.69   47.8    62   12.1   352    17.2   835.4    0.00 
  28   12:20   0.66   48.4    57   11.6   350    16.2   835.4    0.00 
  28   12:30   0.63   48.7    57    9.0    14    15.7   835.3    0.00 
  28   12:40   0.61   48.3    57   10.9   355    16.3   835.2    0.00 
  28   12:50   0.58   48.4    55   12.4   352    17.5   835.0    0.00 
  28   13:00   0.52   48.3    54   13.3   356    17.2   834.9    0.00 
  28   13:10   0.49   48.2    57   10.5   360    16.8   834.8    0.00 
  28   13:20   0.48   48.1    56   13.2   351    18.3   834.7    0.00 
  28   13:30   0.49   48.1    53   13.8   360    19.1   834.5    0.00 
  28   13:40   0.49   48.5    52   13.4   359    18.8   834.5    0.00 
  28   13:50   0.46   48.3    55   13.2   360    18.6   834.5    0.00 
  28   14:00   0.44   48.3    54   13.2   350    18.6   834.5    0.00 
  28   14:10   0.39   48.5    53   12.9   358    17.9   834.5    0.00 
  28   14:20   0.37   48.2    53   12.5   359    16.8   834.5    0.00 
  28   14:30   0.37   48.4    54   12.8   358    16.8   834.6    0.00 
  28   14:40   0.31   48.4    54   12.0     1    17.9   834.6    0.00 
  28   14:50   0.31   48.1    53   11.7     0    16.1   834.7    0.00 
  28   15:00   0.30   48.2    52   10.8     0    15.9   834.8    0.00 
  28   15:10   0.31   48.4    53   10.7   354    15.0   834.9    0.00 
  28   15:20   0.29   48.7    52   10.4   356    15.6   834.8    0.00 
  28   15:30   0.18   48.4    52   12.1   354    16.0   834.8    0.00 
  28   15:40   0.18   47.8    54   10.6   348    14.8   834.8    0.00 
  28   15:50   0.15   47.6    56   10.1   356    14.5   834.8    0.00 
  28   16:00   0.12   47.4    57    8.6   347    11.6   834.9    0.00 
  28   16:10   0.08   47.2    55    8.2   345    11.5   834.9    0.00 
  28   16:20   0.05   46.8    54    8.7   341    11.5   834.8    0.00 
  28   16:30   0.04   46.5    54    8.1   347    11.0   834.7    0.00 
  28   16:40   0.03   46.4    54    8.2   349    10.4   834.8    0.00 
  28   16:50   0.02   46.1    54    7.2   344     9.9   834.8    0.00 
  28   17:00   0.01   45.8    55    6.8   338     8.6   834.8    0.00 
  28   17:10   0.00   45.3    57    5.3   320     7.5   835.0    0.00 
  28   17:20   0.00   44.4    58    5.0   298     7.5   835.0    0.00 
  28   17:30   0.00   43.6    60    6.8   297     7.8   835.1    0.00 
  28   17:40   0.00   42.5    63    4.1   324     6.1   835.2    0.00 
  28   17:50   0.00   42.1    65    4.3   336     5.6   835.2    0.00 
  28   18:00   0.00   41.8    67    4.7   336     6.2   835.3    0.00 
  28   18:10   0.00   42.0    68    4.5   329     6.0   835.3    0.00 
  28   18:20   0.00   41.9    69    6.0   340     7.4   835.3    0.00 
  28   18:30   0.00   43.2    68    6.3   340     7.3   835.4    0.00 
  28   18:40   0.00   43.1    68    5.8   338     6.7   835.4    0.00 
  28   18:50   0.00   42.9    69    6.7   344     8.0   835.4    0.00 
  28   19:00   0.00   43.6    68    6.6   337     8.0   835.4    0.00 
  28   19:10   0.00   44.0    66    5.7   333     7.9   835.5    0.00 
  28   19:20   0.00   44.5    65    5.9   329     8.3   835.5    0.00 
  28   19:30   0.00   44.7    64    5.9   331     8.8   835.5    0.00 
  28   19:40   0.00   45.0    64    6.8   340     9.9   835.5    0.00 
  28   19:50   0.00   45.0    64    6.6   344     9.6   835.5    0.00 
  28   20:00   0.00   45.1    64    7.1   344    10.8   835.5    0.00 
  28   20:10   0.00   45.3    64    7.7   351    10.4   835.5    0.00 
  28   20:20   0.00   45.3    65    7.9   346    10.8   835.6    0.00 
  28   20:30   0.00   45.2    65    7.2   346    10.7   835.5    0.00 
  28   20:40   0.00   44.9    66    6.2   354     8.9   835.6    0.00 
  28   20:50   0.00   44.8    67    7.3   340    10.1   835.8    0.00 
  28   21:00   0.00   44.8    67    7.2   340     9.9   835.8    0.00 
  28   21:10   0.00   44.9    67    7.7   338    10.1   835.8    0.00 
  28   21:20   0.00   44.9    67    7.6   337     9.7   835.9    0.00 
  28   21:30   0.00   44.9    67    7.3   335     8.9   836.0    0.00 
  28   21:40   0.00   44.9    67    7.7   337     8.7   836.0    0.00 
  28   21:50   0.00   45.1    66    7.1   335     9.0   836.0    0.00 
  28   22:00   0.00   44.9    67    7.6   336     9.0   835.9    0.00 
  28   22:10   0.00   44.8    67    7.9   335    10.2   835.9    0.00 
  28   22:20   0.00   45.2    66    7.8   340    10.2   836.0    0.00 
  28   22:30   0.00   45.2    66    6.7   343     9.6   836.0    0.00 
  28   22:40   0.00   45.2    66    5.4   332     9.5   836.2    0.00 
  28   22:50   0.00   45.2    66    7.1   330    10.4   836.2    0.00 
  28   23:00   0.00   45.3    67    8.2   330    11.8   836.1    0.00 
  28   23:10   0.00   45.0    67    7.8   350    12.1   836.1    0.00 
  28   23:20   0.00   44.9    68    7.1   350    10.4   836.1    0.00 
  28   23:30   0.00   44.6    69    9.2   346    14.5   836.1    0.00 
  28   23:40   0.00   44.7    69   10.5   348    15.6   835.9    0.00 
  28   23:50   0.00   44.4    70    8.4   351    13.2   835.9    0.00 
  29    0:00   0.00   44.3    70    6.7   345    11.3   835.9    0.00 
  29    0:10   0.00   44.3    70    7.8   348    11.7   835.8    0.00 
  29    0:20   0.00   44.5    68   11.5   347    16.1   835.6    0.00 
  29    0:30   0.00   44.4    67   12.7   350    16.7   835.5    0.00 
  29    0:40   0.00   44.0    68   10.5   354    16.6   835.5    0.00 
  29    0:50   0.00   44.1    67   10.0   350    16.8   835.5    0.00 
  29    1:00   0.00   44.2    64   13.3   347    21.0   835.4    0.00 
  29    1:10   0.00   44.2    62   14.1   347    20.7   835.3    0.00 

Return to Badger Spring Valley graphs page.


Western Regional Climate Center,wrcc@dri.edu